NORTHEAST SUFFOLK  -  Freeze Watch Freeze Watch        NORTHWEST SUFFOLK  -  Freeze Watch Freeze Watch        SOUTHEAST SUFFOLK  -  Freeze Watch Freeze Watch        SOUTHWEST SUFFOLK  -  Freeze Watch Freeze Watch      

Active alerts

Northwest Suffolk
  Details for Northwest Suffolk Freeze Watch
Southwest Suffolk
  Details for Southwest Suffolk Freeze Watch
Northeast Suffolk
  Details for Northeast Suffolk Freeze Watch
Southeast Suffolk
  Details for Southeast Suffolk Freeze Watch


WXM80 ListenWXM80 Stop

You find our weather info also at:

UK Metoffice

WeatherCloud

Weather Underground

Northeastern Weather Network

AWEKAS

Citizen Weather Observer Program (CWOP)

HAMweather, WeatherForYou, PWS Weather


Weather Underground History page Text

Daily Summary for April 30, 2017 Units:  Both    English   Metric
« Previous Day
Next Day »
Daily Weekly Monthly Yearly Custom
  High: Low: Average:
Temperature: 67.1 °F /  19.5 °C 50.8 °F /  10.4 °C 57.4 °F /  14.1 °C
Dew Point: 56.9 °F /  13.8 °C 40.7 °F /  4.8 °C 46.9 °F /  8.3 °C
Humidity: 80 % 54 % 68 %
Wind Speed: 8.0 mph /  12.9 km/h - 2.2 mph /  3.5 km/h
Wind Gust: 15.0 mph /  24.1 km/h - -
Wind:- - ESE
Pressure: 30.24 in /  1023.9 hPa 30.07 in /  1018.2 hPa -
Precipitation: 0.00 in /  0 mm    
Historical Graphs
 
 
Tabular Data for April 30, 2017
Time Temperature Dew Point Pressure Wind Wind Speed Wind Gust Humidity Rainfall Rate (Hourly)
00:04 67.1 °F /  19.5 °C 56.6 °F /  13.7 °C 30.07 in /  1018.2 hPa West 0.9 mph /  1.4 km/h 3.5 mph /  5.6 km/h 69 % 0.00 in /  0 mm
00:09 67.0 °F /  19.4 °C 56.5 °F /  13.6 °C 30.07 in /  1018.2 hPa WNW 0.9 mph /  1.4 km/h 3.5 mph /  5.6 km/h 69 % 0.00 in /  0 mm
00:14 67.0 °F /  19.4 °C 56.9 °F /  13.8 °C 30.07 in /  1018.2 hPa West 0.5 mph /  0.8 km/h 2.3 mph /  3.7 km/h 70 % 0.00 in /  0 mm
00:19 66.9 °F /  19.4 °C 56.8 °F /  13.8 °C 30.07 in /  1018.2 hPa WSW 1.1 mph /  1.8 km/h 4.0 mph /  6.4 km/h 70 % 0.00 in /  0 mm
00:24 66.8 °F /  19.3 °C 56.7 °F /  13.7 °C 30.07 in /  1018.2 hPa WNW 0.4 mph /  0.6 km/h 3.5 mph /  5.6 km/h 70 % 0.00 in /  0 mm
00:29 66.8 °F /  19.3 °C 56.7 °F /  13.7 °C 30.07 in /  1018.2 hPa West 0.8 mph /  1.3 km/h 4.0 mph /  6.4 km/h 70 % 0.00 in /  0 mm
00:34 66.7 °F /  19.3 °C 56.6 °F /  13.7 °C 30.07 in /  1018.2 hPa West 1.6 mph /  2.6 km/h 3.5 mph /  5.6 km/h 70 % 0.00 in /  0 mm
00:39 66.6 °F /  19.2 °C 56.5 °F /  13.6 °C 30.08 in /  1018.5 hPa Calm   2.3 mph /  3.7 km/h 70 % 0.00 in /  0 mm
00:44 66.5 °F /  19.2 °C 56.4 °F /  13.6 °C 30.07 in /  1018.2 hPa WSW 1.0 mph /  1.6 km/h 2.3 mph /  3.7 km/h 70 % 0.00 in /  0 mm
00:49 66.4 °F /  19.1 °C 56.7 °F /  13.7 °C 30.07 in /  1018.2 hPa WSW 1.8 mph /  2.9 km/h 3.5 mph /  5.6 km/h 71 % 0.00 in /  0 mm
00:54 66.3 °F /  19.1 °C 56.2 °F /  13.4 °C 30.07 in /  1018.2 hPa WSW 1.3 mph /  2.1 km/h 3.5 mph /  5.6 km/h 70 % 0.00 in /  0 mm
00:59 66.1 °F /  18.9 °C 56.0 °F /  13.3 °C 30.07 in /  1018.2 hPa WSW 0.4 mph /  0.6 km/h 1.2 mph /  1.9 km/h 70 % 0.00 in /  0 mm
01:04 65.9 °F /  18.8 °C 56.2 °F /  13.4 °C 30.07 in /  1018.2 hPa WNW 1.1 mph /  1.8 km/h 5.8 mph /  9.3 km/h 71 % 0.00 in /  0 mm
01:10 65.7 °F /  18.7 °C 56.0 °F /  13.3 °C 30.07 in /  1018.2 hPa West 1.9 mph /  3.1 km/h 4.6 mph /  7.4 km/h 71 % 0.00 in /  0 mm
01:14 65.6 °F /  18.7 °C 55.9 °F /  13.3 °C 30.07 in /  1018.2 hPa Calm     71 % 0.00 in /  0 mm
01:20 65.4 °F /  18.6 °C 55.7 °F /  13.2 °C 30.08 in /  1018.5 hPa West 0.5 mph /  0.8 km/h 2.3 mph /  3.7 km/h 71 % 0.00 in /  0 mm
01:25 65.3 °F /  18.5 °C 55.7 °F /  13.2 °C 30.08 in /  1018.5 hPa WSW 1.8 mph /  2.9 km/h 3.5 mph /  5.6 km/h 71 % 0.00 in /  0 mm
01:30 65.2 °F /  18.4 °C 55.9 °F /  13.3 °C 30.08 in /  1018.5 hPa Calm   1.2 mph /  1.9 km/h 72 % 0.00 in /  0 mm
01:35 65.1 °F /  18.4 °C 55.8 °F /  13.2 °C 30.08 in /  1018.5 hPa Calm     72 % 0.00 in /  0 mm
01:40 65.0 °F /  18.3 °C 55.8 °F /  13.2 °C 30.08 in /  1018.5 hPa Calm   1.2 mph /  1.9 km/h 72 % 0.00 in /  0 mm
01:45 64.8 °F /  18.2 °C 55.6 °F /  13.1 °C 30.08 in /  1018.5 hPa SW 0.4 mph /  0.6 km/h 1.2 mph /  1.9 km/h 72 % 0.00 in /  0 mm
01:50 64.6 °F /  18.1 °C 55.7 °F /  13.2 °C 30.08 in /  1018.5 hPa WSW 1.1 mph /  1.8 km/h 3.5 mph /  5.6 km/h 73 % 0.00 in /  0 mm
01:55 64.5 °F /  18.1 °C 55.7 °F /  13.2 °C 30.08 in /  1018.5 hPa WSW 1.4 mph /  2.3 km/h 2.3 mph /  3.7 km/h 73 % 0.00 in /  0 mm
02:00 64.3 °F /  17.9 °C 55.8 °F /  13.2 °C 30.08 in /  1018.5 hPa West 0.4 mph /  0.6 km/h 3.5 mph /  5.6 km/h 74 % 0.00 in /  0 mm
02:05 64.1 °F /  17.8 °C 55.6 °F /  13.1 °C 30.08 in /  1018.5 hPa West 1.7 mph /  2.7 km/h 3.5 mph /  5.6 km/h 74 % 0.00 in /  0 mm
02:10 63.9 °F /  17.7 °C 55.4 °F /  13 °C 30.08 in /  1018.5 hPa West 2.0 mph /  3.2 km/h 4.0 mph /  6.4 km/h 74 % 0.00 in /  0 mm
02:15 63.8 °F /  17.7 °C 55.4 °F /  13 °C 30.08 in /  1018.5 hPa Calm   3.5 mph /  5.6 km/h 74 % 0.00 in /  0 mm
02:20 63.6 °F /  17.6 °C 55.2 °F /  12.9 °C 30.09 in /  1018.8 hPa WNW 2.0 mph /  3.2 km/h 4.0 mph /  6.4 km/h 74 % 0.00 in /  0 mm
02:25 63.5 °F /  17.5 °C 55.1 °F /  12.8 °C 30.09 in /  1018.8 hPa WNW 1.0 mph /  1.6 km/h 5.0 mph /  8 km/h 74 % 0.00 in /  0 mm
02:30 63.4 °F /  17.4 °C 55.0 °F /  12.8 °C 30.09 in /  1018.8 hPa Calm   2.0 mph /  3.2 km/h 74 % 0.00 in /  0 mm
02:35 63.3 °F /  17.4 °C 54.9 °F /  12.7 °C 30.09 in /  1018.8 hPa Calm   2.0 mph /  3.2 km/h 74 % 0.00 in /  0 mm
02:40 63.1 °F /  17.3 °C 54.7 °F /  12.6 °C 30.09 in /  1018.8 hPa North 2.0 mph /  3.2 km/h 5.0 mph /  8 km/h 74 % 0.00 in /  0 mm
02:45 62.9 °F /  17.2 °C 54.5 °F /  12.5 °C 30.09 in /  1018.8 hPa North 1.0 mph /  1.6 km/h 3.0 mph /  4.8 km/h 74 % 0.00 in /  0 mm
02:50 62.7 °F /  17.1 °C 54.3 °F /  12.4 °C 30.09 in /  1018.8 hPa Calm   3.0 mph /  4.8 km/h 74 % 0.00 in /  0 mm
02:55 62.5 °F /  16.9 °C 54.1 °F /  12.3 °C 30.09 in /  1018.8 hPa NNW 1.0 mph /  1.6 km/h 3.0 mph /  4.8 km/h 74 % 0.00 in /  0 mm
03:01 62.2 °F /  16.8 °C 54.2 °F /  12.3 °C 30.10 in /  1019.2 hPa North 0.3 mph /  0.5 km/h 3.5 mph /  5.6 km/h 75 % 0.00 in /  0 mm
03:06 61.9 °F /  16.6 °C 53.9 °F /  12.2 °C 30.10 in /  1019.2 hPa North 0.7 mph /  1.1 km/h 2.3 mph /  3.7 km/h 75 % 0.00 in /  0 mm
03:11 61.8 °F /  16.6 °C 53.8 °F /  12.1 °C 30.10 in /  1019.2 hPa NNE 0.7 mph /  1.1 km/h 3.5 mph /  5.6 km/h 75 % 0.00 in /  0 mm
03:16 61.6 °F /  16.4 °C 54.0 °F /  12.2 °C 30.10 in /  1019.2 hPa NNE 2.7 mph /  4.3 km/h 4.6 mph /  7.4 km/h 76 % 0.00 in /  0 mm
03:21 61.4 °F /  16.3 °C 53.8 °F /  12.1 °C 30.09 in /  1018.8 hPa NNE 3.7 mph /  6 km/h 5.8 mph /  9.3 km/h 76 % 0.00 in /  0 mm
03:26 61.2 °F /  16.2 °C 53.2 °F /  11.8 °C 30.10 in /  1019.2 hPa North 0.8 mph /  1.3 km/h 2.3 mph /  3.7 km/h 75 % 0.00 in /  0 mm
03:31 61.0 °F /  16.1 °C 53.0 °F /  11.7 °C 30.11 in /  1019.5 hPa NNE 4.0 mph /  6.4 km/h 6.9 mph /  11.1 km/h 75 % 0.00 in /  0 mm
03:36 60.5 °F /  15.8 °C 50.7 °F /  10.4 °C 30.11 in /  1019.5 hPa NNE 6.3 mph /  10.1 km/h 13.0 mph /  20.9 km/h 70 % 0.00 in /  0 mm
03:41 60.1 °F /  15.6 °C 46.6 °F /  8.1 °C 30.11 in /  1019.5 hPa NNE 8.0 mph /  12.9 km/h 12.7 mph /  20.4 km/h 61 % 0.00 in /  0 mm
03:46 60.0 °F /  15.6 °C 47.4 °F /  8.6 °C 30.11 in /  1019.5 hPa North 3.8 mph /  6.1 km/h 7.0 mph /  11.3 km/h 63 % 0.00 in /  0 mm
03:51 59.9 °F /  15.5 °C 48.9 °F /  9.4 °C 30.11 in /  1019.5 hPa NNE 3.6 mph /  5.8 km/h 8.1 mph /  13 km/h 67 % 0.00 in /  0 mm
03:56 59.7 °F /  15.4 °C 49.5 °F /  9.7 °C 30.11 in /  1019.5 hPa NE 3.6 mph /  5.8 km/h 6.9 mph /  11.1 km/h 69 % 0.00 in /  0 mm
04:01 59.3 °F /  15.2 °C 48.3 °F /  9.1 °C 30.12 in /  1019.9 hPa NNE 5.2 mph /  8.4 km/h 9.0 mph /  14.5 km/h 67 % 0.00 in /  0 mm
04:07 59.1 °F /  15.1 °C 47.7 °F /  8.7 °C 30.12 in /  1019.9 hPa NNE 2.4 mph /  3.9 km/h 5.0 mph /  8 km/h 66 % 0.00 in /  0 mm
04:12 58.9 °F /  14.9 °C 48.0 °F /  8.9 °C 30.11 in /  1019.5 hPa NE 4.4 mph /  7.1 km/h 6.0 mph /  9.7 km/h 67 % 0.00 in /  0 mm
04:17 58.7 °F /  14.8 °C 48.2 °F /  9 °C 30.12 in /  1019.9 hPa NNE 4.0 mph /  6.4 km/h 6.9 mph /  11.1 km/h 68 % 0.00 in /  0 mm
04:22 58.6 °F /  14.8 °C 48.1 °F /  8.9 °C 30.12 in /  1019.9 hPa NNE 3.3 mph /  5.3 km/h 6.0 mph /  9.7 km/h 68 % 0.00 in /  0 mm
04:27 58.4 °F /  14.7 °C 48.3 °F /  9.1 °C 30.13 in /  1020.2 hPa North 5.5 mph /  8.9 km/h 8.1 mph /  13 km/h 69 % 0.00 in /  0 mm
04:32 58.2 °F /  14.6 °C 47.7 °F /  8.7 °C 30.13 in /  1020.2 hPa NNE 3.7 mph /  6 km/h 4.6 mph /  7.4 km/h 68 % 0.00 in /  0 mm
04:34 58.1 °F /  14.5 °C 47.2 °F /  8.4 °C 30.13 in /  1020.2 hPa North 6.2 mph /  10 km/h 10.4 mph /  16.7 km/h 67 % 0.00 in /  0 mm
04:40 58.0 °F /  14.4 °C 47.1 °F /  8.4 °C 30.13 in /  1020.2 hPa NNE 4.0 mph /  6.4 km/h 6.0 mph /  9.7 km/h 67 % 0.00 in /  0 mm
04:45 57.9 °F /  14.4 °C 47.4 °F /  8.6 °C 30.14 in /  1020.5 hPa North 3.8 mph /  6.1 km/h 6.9 mph /  11.1 km/h 68 % 0.00 in /  0 mm
04:50 57.7 °F /  14.3 °C 47.6 °F /  8.7 °C 30.14 in /  1020.5 hPa NE 4.1 mph /  6.6 km/h 10.4 mph /  16.7 km/h 69 % 0.00 in /  0 mm
04:55 57.6 °F /  14.2 °C 47.9 °F /  8.8 °C 30.14 in /  1020.5 hPa NE 4.2 mph /  6.8 km/h 5.8 mph /  9.3 km/h 70 % 0.00 in /  0 mm
05:00 57.3 °F /  14.1 °C 48.0 °F /  8.9 °C 30.14 in /  1020.5 hPa NNE 0.2 mph /  0.3 km/h 2.3 mph /  3.7 km/h 71 % 0.00 in /  0 mm
05:05 57.2 °F /  14 °C 49.0 °F /  9.4 °C 30.14 in /  1020.5 hPa NE 1.4 mph /  2.3 km/h 3.5 mph /  5.6 km/h 74 % 0.00 in /  0 mm
05:10 57.0 °F /  13.9 °C 49.2 °F /  9.6 °C 30.14 in /  1020.5 hPa NE 0.5 mph /  0.8 km/h 2.3 mph /  3.7 km/h 75 % 0.00 in /  0 mm
05:15 56.8 °F /  13.8 °C 49.3 °F /  9.6 °C 30.14 in /  1020.5 hPa NE 0.5 mph /  0.8 km/h 3.5 mph /  5.6 km/h 76 % 0.00 in /  0 mm
05:20 56.5 °F /  13.6 °C 48.7 °F /  9.3 °C 30.14 in /  1020.5 hPa Calm   1.2 mph /  1.9 km/h 75 % 0.00 in /  0 mm
05:25 56.2 °F /  13.4 °C 48.7 °F /  9.3 °C 30.15 in /  1020.9 hPa NNE 0.8 mph /  1.3 km/h 3.5 mph /  5.6 km/h 76 % 0.00 in /  0 mm
05:30 55.9 °F /  13.3 °C 48.1 °F /  8.9 °C 30.15 in /  1020.9 hPa Calm   1.2 mph /  1.9 km/h 75 % 0.00 in /  0 mm
05:35 55.7 °F /  13.2 °C 48.2 °F /  9 °C 30.15 in /  1020.9 hPa NNE 2.3 mph /  3.7 km/h 4.6 mph /  7.4 km/h 76 % 0.00 in /  0 mm
05:40 55.4 °F /  13 °C 47.6 °F /  8.7 °C 30.15 in /  1020.9 hPa NNE 1.3 mph /  2.1 km/h 3.0 mph /  4.8 km/h 75 % 0.00 in /  0 mm
05:45 55.1 °F /  12.8 °C 47.3 °F /  8.5 °C 30.15 in /  1020.9 hPa NNE 0.2 mph /  0.3 km/h 1.2 mph /  1.9 km/h 75 % 0.00 in /  0 mm
05:51 54.9 °F /  12.7 °C 47.1 °F /  8.4 °C 30.15 in /  1020.9 hPa NNE 1.0 mph /  1.6 km/h 6.0 mph /  9.7 km/h 75 % 0.00 in /  0 mm
05:56 54.6 °F /  12.6 °C 46.1 °F /  7.8 °C 30.16 in /  1021.2 hPa NNE 5.0 mph /  8 km/h 9.0 mph /  14.5 km/h 73 % 0.00 in /  0 mm
06:01 54.4 °F /  12.4 °C 45.6 °F /  7.6 °C 30.17 in /  1021.6 hPa NNE 2.6 mph /  4.2 km/h 6.9 mph /  11.1 km/h 72 % 0.00 in /  0 mm
06:06 54.4 °F /  12.4 °C 45.9 °F /  7.7 °C 30.17 in /  1021.6 hPa NNE 2.0 mph /  3.2 km/h 7.0 mph /  11.3 km/h 73 % 0.00 in /  0 mm
06:11 54.5 °F /  12.5 °C 46.0 °F /  7.8 °C 30.16 in /  1021.2 hPa North 6.4 mph /  10.3 km/h 10.4 mph /  16.7 km/h 73 % 0.00 in /  0 mm
06:16 54.5 °F /  12.5 °C 44.9 °F /  7.2 °C 30.17 in /  1021.6 hPa North 4.7 mph /  7.6 km/h 9.2 mph /  14.8 km/h 70 % 0.00 in /  0 mm
06:21 54.6 °F /  12.6 °C 45.4 °F /  7.4 °C 30.18 in /  1021.9 hPa NNE 3.0 mph /  4.8 km/h 7.0 mph /  11.3 km/h 71 % 0.00 in /  0 mm
06:26 54.7 °F /  12.6 °C 45.8 °F /  7.7 °C 30.17 in /  1021.6 hPa NNE 3.8 mph /  6.1 km/h 5.8 mph /  9.3 km/h 72 % 0.00 in /  0 mm
06:31 54.8 °F /  12.7 °C 46.3 °F /  7.9 °C 30.18 in /  1021.9 hPa NNE 2.0 mph /  3.2 km/h 7.0 mph /  11.3 km/h 73 % 0.00 in /  0 mm
06:36 54.9 °F /  12.7 °C 46.8 °F /  8.2 °C 30.18 in /  1021.9 hPa NNE 2.0 mph /  3.2 km/h 7.0 mph /  11.3 km/h 74 % 0.00 in /  0 mm
06:41 55.0 °F /  12.8 °C 47.2 °F /  8.4 °C 30.18 in /  1021.9 hPa NNE 0.6 mph /  1 km/h 1.2 mph /  1.9 km/h 75 % 0.00 in /  0 mm
06:46 55.1 °F /  12.8 °C 47.3 °F /  8.5 °C 30.18 in /  1021.9 hPa NE 1.0 mph /  1.6 km/h 4.0 mph /  6.4 km/h 75 % 0.00 in /  0 mm
06:51 55.2 °F /  12.9 °C 47.8 °F /  8.8 °C 30.19 in /  1022.2 hPa ENE 1.0 mph /  1.6 km/h 2.0 mph /  3.2 km/h 76 % 0.00 in /  0 mm
06:56 55.3 °F /  12.9 °C 47.8 °F /  8.8 °C 30.19 in /  1022.2 hPa NE 1.0 mph /  1.6 km/h 4.0 mph /  6.4 km/h 76 % 0.00 in /  0 mm
07:01 55.3 °F /  12.9 °C 47.2 °F /  8.4 °C 30.19 in /  1022.2 hPa North 4.8 mph /  7.7 km/h 8.1 mph /  13 km/h 74 % 0.00 in /  0 mm
07:06 55.3 °F /  12.9 °C 46.8 °F /  8.2 °C 30.19 in /  1022.2 hPa NNE 1.0 mph /  1.6 km/h 8.0 mph /  12.9 km/h 73 % 0.00 in /  0 mm
07:11 55.3 °F /  12.9 °C 47.2 °F /  8.4 °C 30.19 in /  1022.2 hPa North 3.0 mph /  4.8 km/h 4.6 mph /  7.4 km/h 74 % 0.00 in /  0 mm
07:16 55.3 °F /  12.9 °C 47.6 °F /  8.7 °C 30.19 in /  1022.2 hPa NNE 2.0 mph /  3.2 km/h 7.0 mph /  11.3 km/h 75 % 0.00 in /  0 mm
07:21 55.6 °F /  13.1 °C 47.4 °F /  8.6 °C 30.19 in /  1022.2 hPa NNE 2.7 mph /  4.3 km/h 5.8 mph /  9.3 km/h 74 % 0.00 in /  0 mm
07:26 55.8 °F /  13.2 °C 46.9 °F /  8.3 °C 30.20 in /  1022.6 hPa NNE 2.0 mph /  3.2 km/h 5.8 mph /  9.3 km/h 72 % 0.00 in /  0 mm
07:31 55.9 °F /  13.3 °C 47.4 °F /  8.6 °C 30.20 in /  1022.6 hPa NE 0.9 mph /  1.4 km/h 3.5 mph /  5.6 km/h 73 % 0.00 in /  0 mm
07:36 56.0 °F /  13.3 °C 47.5 °F /  8.6 °C 30.19 in /  1022.2 hPa NE 1.4 mph /  2.3 km/h 3.5 mph /  5.6 km/h 73 % 0.00 in /  0 mm
07:42 56.2 °F /  13.4 °C 47.3 °F /  8.5 °C 30.19 in /  1022.2 hPa NNE 1.4 mph /  2.3 km/h 3.5 mph /  5.6 km/h 72 % 0.00 in /  0 mm
07:47 56.4 °F /  13.6 °C 47.1 °F /  8.4 °C 30.19 in /  1022.2 hPa NNE 2.0 mph /  3.2 km/h 3.5 mph /  5.6 km/h 71 % 0.00 in /  0 mm
07:52 56.6 °F /  13.7 °C 47.3 °F /  8.5 °C 30.19 in /  1022.2 hPa ENE 1.5 mph /  2.4 km/h 3.5 mph /  5.6 km/h 71 % 0.00 in /  0 mm
07:57 56.7 °F /  13.7 °C 48.1 °F /  8.9 °C 30.19 in /  1022.2 hPa North 1.0 mph /  1.6 km/h 3.0 mph /  4.8 km/h 73 % 0.00 in /  0 mm
08:02 56.8 °F /  13.8 °C 47.9 °F /  8.8 °C 30.21 in /  1022.9 hPa NNE 1.9 mph /  3.1 km/h 3.5 mph /  5.6 km/h 72 % 0.00 in /  0 mm
08:07 56.8 °F /  13.8 °C 46.7 °F /  8.2 °C 30.21 in /  1022.9 hPa ENE 1.0 mph /  1.6 km/h 2.3 mph /  3.7 km/h 69 % 0.00 in /  0 mm
08:12 56.9 °F /  13.8 °C 47.2 °F /  8.4 °C 30.22 in /  1023.2 hPa NNE 1.7 mph /  2.7 km/h 3.5 mph /  5.6 km/h 70 % 0.00 in /  0 mm
08:17 56.8 °F /  13.8 °C 46.3 °F /  7.9 °C 30.21 in /  1022.9 hPa ENE 1.7 mph /  2.7 km/h 3.5 mph /  5.6 km/h 68 % 0.00 in /  0 mm
08:22 56.8 °F /  13.8 °C 46.7 °F /  8.2 °C 30.21 in /  1022.9 hPa ENE 1.9 mph /  3.1 km/h 4.6 mph /  7.4 km/h 69 % 0.00 in /  0 mm
08:27 56.6 °F /  13.7 °C 45.8 °F /  7.7 °C 30.21 in /  1022.9 hPa East 3.0 mph /  4.8 km/h 4.6 mph /  7.4 km/h 67 % 0.00 in /  0 mm
08:32 56.5 °F /  13.6 °C 46.8 °F /  8.2 °C 30.21 in /  1022.9 hPa ENE 0.7 mph /  1.1 km/h 2.3 mph /  3.7 km/h 70 % 0.00 in /  0 mm
08:38 56.4 °F /  13.6 °C 46.0 °F /  7.8 °C 30.21 in /  1022.9 hPa NE 4.3 mph /  6.9 km/h 6.9 mph /  11.1 km/h 68 % 0.00 in /  0 mm
08:43 56.3 °F /  13.5 °C 46.6 °F /  8.1 °C 30.22 in /  1023.2 hPa ENE 0.4 mph /  0.6 km/h 4.6 mph /  7.4 km/h 70 % 0.00 in /  0 mm
08:48 56.3 °F /  13.5 °C 47.4 °F /  8.6 °C 30.22 in /  1023.2 hPa ENE 2.4 mph /  3.9 km/h 3.5 mph /  5.6 km/h 72 % 0.00 in /  0 mm
08:53 56.3 °F /  13.5 °C 47.0 °F /  8.3 °C 30.22 in /  1023.2 hPa ENE 1.4 mph /  2.3 km/h 3.5 mph /  5.6 km/h 71 % 0.00 in /  0 mm
08:58 56.3 °F /  13.5 °C 47.4 °F /  8.6 °C 30.22 in /  1023.2 hPa ENE 1.5 mph /  2.4 km/h 3.5 mph /  5.6 km/h 72 % 0.00 in /  0 mm
09:03 56.4 °F /  13.6 °C 47.1 °F /  8.4 °C 30.22 in /  1023.2 hPa East 1.8 mph /  2.9 km/h 3.5 mph /  5.6 km/h 71 % 0.00 in /  0 mm
09:08 56.4 °F /  13.6 °C 46.0 °F /  7.8 °C 30.23 in /  1023.6 hPa East 1.7 mph /  2.7 km/h 3.0 mph /  4.8 km/h 68 % 0.00 in /  0 mm
09:13 56.5 °F /  13.6 °C 46.8 °F /  8.2 °C 30.23 in /  1023.6 hPa ENE 2.2 mph /  3.5 km/h 3.5 mph /  5.6 km/h 70 % 0.00 in /  0 mm
09:18 56.6 °F /  13.7 °C 46.5 °F /  8.1 °C 30.23 in /  1023.6 hPa ENE 1.3 mph /  2.1 km/h 2.3 mph /  3.7 km/h 69 % 0.00 in /  0 mm
09:23 56.6 °F /  13.7 °C 46.5 °F /  8.1 °C 30.23 in /  1023.6 hPa East 1.9 mph /  3.1 km/h 3.5 mph /  5.6 km/h 69 % 0.00 in /  0 mm
09:28 56.6 °F /  13.7 °C 47.3 °F /  8.5 °C 30.23 in /  1023.6 hPa East 1.7 mph /  2.7 km/h 3.5 mph /  5.6 km/h 71 % 0.00 in /  0 mm
09:33 56.6 °F /  13.7 °C 46.5 °F /  8.1 °C 30.22 in /  1023.2 hPa ENE 3.2 mph /  5.1 km/h 4.6 mph /  7.4 km/h 69 % 0.00 in /  0 mm
09:38 56.7 °F /  13.7 °C 47.0 °F /  8.3 °C 30.22 in /  1023.2 hPa ENE 2.3 mph /  3.7 km/h 4.6 mph /  7.4 km/h 70 % 0.00 in /  0 mm
09:43 56.9 °F /  13.8 °C 47.6 °F /  8.7 °C 30.21 in /  1022.9 hPa East 3.5 mph /  5.6 km/h 5.0 mph /  8 km/h 71 % 0.00 in /  0 mm
09:49 57.2 °F /  14 °C 47.9 °F /  8.8 °C 30.21 in /  1022.9 hPa ENE 3.2 mph /  5.1 km/h 4.6 mph /  7.4 km/h 71 % 0.00 in /  0 mm
09:54 58.0 °F /  14.4 °C 48.3 °F /  9.1 °C 30.21 in /  1022.9 hPa ENE 3.7 mph /  6 km/h 9.0 mph /  14.5 km/h 70 % 0.00 in /  0 mm
09:59 58.7 °F /  14.8 °C 47.0 °F /  8.3 °C 30.21 in /  1022.9 hPa ENE 4.1 mph /  6.6 km/h 6.9 mph /  11.1 km/h 65 % 0.00 in /  0 mm
10:04 59.4 °F /  15.2 °C 48.4 °F /  9.1 °C 30.21 in /  1022.9 hPa ENE 2.8 mph /  4.5 km/h 6.0 mph /  9.7 km/h 67 % 0.00 in /  0 mm
10:09 59.9 °F /  15.5 °C 48.1 °F /  8.9 °C 30.22 in /  1023.2 hPa ENE 3.6 mph /  5.8 km/h 6.9 mph /  11.1 km/h 65 % 0.00 in /  0 mm
10:14 60.0 °F /  15.6 °C 47.4 °F /  8.6 °C 30.22 in /  1023.2 hPa ENE 2.5 mph /  4 km/h 3.5 mph /  5.6 km/h 63 % 0.00 in /  0 mm
10:19 59.8 °F /  15.4 °C 47.2 °F /  8.4 °C 30.21 in /  1022.9 hPa NE 5.0 mph /  8 km/h 9.2 mph /  14.8 km/h 63 % 0.00 in /  0 mm
10:24 59.0 °F /  15 °C 46.0 °F /  7.8 °C 30.22 in /  1023.2 hPa ENE 4.3 mph /  6.9 km/h 7.0 mph /  11.3 km/h 62 % 0.00 in /  0 mm
10:29 58.5 °F /  14.7 °C 46.8 °F /  8.2 °C 30.22 in /  1023.2 hPa NE 4.5 mph /  7.2 km/h 8.1 mph /  13 km/h 65 % 0.00 in /  0 mm
10:34 58.0 °F /  14.4 °C 46.3 °F /  7.9 °C 30.21 in /  1022.9 hPa ENE 4.9 mph /  7.9 km/h 7.0 mph /  11.3 km/h 65 % 0.00 in /  0 mm
10:40 57.6 °F /  14.2 °C 47.1 °F /  8.4 °C 30.21 in /  1022.9 hPa ENE 1.7 mph /  2.7 km/h 7.0 mph /  11.3 km/h 68 % 0.00 in /  0 mm
10:45 57.6 °F /  14.2 °C 47.1 °F /  8.4 °C 30.21 in /  1022.9 hPa ENE 2.9 mph /  4.7 km/h 6.9 mph /  11.1 km/h 68 % 0.00 in /  0 mm
10:50 57.5 °F /  14.2 °C 46.6 °F /  8.1 °C 30.20 in /  1022.6 hPa ENE 2.1 mph /  3.4 km/h 8.1 mph /  13 km/h 67 % 0.00 in /  0 mm
10:55 57.4 °F /  14.1 °C 47.3 °F /  8.5 °C 30.20 in /  1022.6 hPa ENE 1.2 mph /  1.9 km/h 3.5 mph /  5.6 km/h 69 % 0.00 in /  0 mm
11:00 57.4 °F /  14.1 °C 46.9 °F /  8.3 °C 30.20 in /  1022.6 hPa ENE 1.7 mph /  2.7 km/h 3.0 mph /  4.8 km/h 68 % 0.00 in /  0 mm
11:05 57.6 °F /  14.2 °C 46.7 °F /  8.2 °C 30.20 in /  1022.6 hPa ENE 1.6 mph /  2.6 km/h 4.0 mph /  6.4 km/h 67 % 0.00 in /  0 mm
11:10 57.8 °F /  14.3 °C 47.3 °F /  8.5 °C 30.20 in /  1022.6 hPa ENE 0.4 mph /  0.6 km/h 1.2 mph /  1.9 km/h 68 % 0.00 in /  0 mm
11:15 58.2 °F /  14.6 °C 48.1 °F /  8.9 °C 30.20 in /  1022.6 hPa ENE 1.0 mph /  1.6 km/h 2.3 mph /  3.7 km/h 69 % 0.00 in /  0 mm
11:20 58.5 °F /  14.7 °C 48.0 °F /  8.9 °C 30.19 in /  1022.2 hPa ENE 2.0 mph /  3.2 km/h 5.0 mph /  8 km/h 68 % 0.00 in /  0 mm
11:25 58.6 °F /  14.8 °C 47.3 °F /  8.5 °C 30.21 in /  1022.9 hPa NNE 1.3 mph /  2.1 km/h 3.5 mph /  5.6 km/h 66 % 0.00 in /  0 mm
11:30 58.7 °F /  14.8 °C 47.4 °F /  8.6 °C 30.21 in /  1022.9 hPa NE 2.6 mph /  4.2 km/h 4.6 mph /  7.4 km/h 66 % 0.00 in /  0 mm
11:35 58.6 °F /  14.8 °C 47.7 °F /  8.7 °C 30.21 in /  1022.9 hPa North 1.5 mph /  2.4 km/h 2.3 mph /  3.7 km/h 67 % 0.00 in /  0 mm
11:40 58.7 °F /  14.8 °C 47.4 °F /  8.6 °C 30.20 in /  1022.6 hPa ENE 4.7 mph /  7.6 km/h 5.8 mph /  9.3 km/h 66 % 0.00 in /  0 mm
11:45 58.8 °F /  14.9 °C 47.5 °F /  8.6 °C 30.20 in /  1022.6 hPa East 2.6 mph /  4.2 km/h 8.1 mph /  13 km/h 66 % 0.00 in /  0 mm
11:51 59.6 °F /  15.3 °C 48.6 °F /  9.2 °C 30.20 in /  1022.6 hPa ENE 2.0 mph /  3.2 km/h 5.0 mph /  8 km/h 67 % 0.00 in /  0 mm
11:56 60.4 °F /  15.8 °C 46.9 °F /  8.3 °C 30.21 in /  1022.9 hPa East 6.0 mph /  9.7 km/h 6.0 mph /  9.7 km/h 61 % 0.00 in /  0 mm
12:01 60.8 °F /  16 °C 47.7 °F /  8.7 °C 30.20 in /  1022.6 hPa ENE 6.5 mph /  10.5 km/h 10.4 mph /  16.7 km/h 62 % 0.00 in /  0 mm
12:06 61.1 °F /  16.2 °C 48.0 °F /  8.9 °C 30.20 in /  1022.6 hPa NE 3.3 mph /  5.3 km/h 7.0 mph /  11.3 km/h 62 % 0.00 in /  0 mm
12:11 60.9 °F /  16.1 °C 48.2 °F /  9 °C 30.21 in /  1022.9 hPa East 4.2 mph /  6.8 km/h 6.9 mph /  11.1 km/h 63 % 0.00 in /  0 mm
12:16 60.7 °F /  15.9 °C 49.3 °F /  9.6 °C 30.21 in /  1022.9 hPa East 0.9 mph /  1.4 km/h 2.3 mph /  3.7 km/h 66 % 0.00 in /  0 mm
12:21 60.9 °F /  16.1 °C 46.5 °F /  8.1 °C 30.20 in /  1022.6 hPa SSE 5.0 mph /  8 km/h 13.8 mph /  22.2 km/h 59 % 0.00 in /  0 mm
12:26 61.2 °F /  16.2 °C 46.8 °F /  8.2 °C 30.21 in /  1022.9 hPa SE 5.2 mph /  8.4 km/h 11.5 mph /  18.5 km/h 59 % 0.00 in /  0 mm
12:31 61.4 °F /  16.3 °C 46.0 °F /  7.8 °C 30.21 in /  1022.9 hPa SSE 7.8 mph /  12.6 km/h 10.4 mph /  16.7 km/h 57 % 0.00 in /  0 mm
12:36 61.4 °F /  16.3 °C 46.0 °F /  7.8 °C 30.21 in /  1022.9 hPa SE 5.7 mph /  9.2 km/h 8.1 mph /  13 km/h 57 % 0.00 in /  0 mm
12:41 61.5 °F /  16.4 °C 46.1 °F /  7.8 °C 30.21 in /  1022.9 hPa ESE 3.2 mph /  5.1 km/h 8.1 mph /  13 km/h 57 % 0.00 in /  0 mm
12:46 61.6 °F /  16.4 °C 45.3 °F /  7.4 °C 30.22 in /  1023.2 hPa South 5.1 mph /  8.2 km/h 11.5 mph /  18.5 km/h 55 % 0.00 in /  0 mm
12:52 61.4 °F /  16.3 °C 44.6 °F /  7 °C 30.22 in /  1023.2 hPa SSE 3.8 mph /  6.1 km/h 15.0 mph /  24.1 km/h 54 % 0.00 in /  0 mm
12:57 61.0 °F /  16.1 °C 44.7 °F /  7.1 °C 30.22 in /  1023.2 hPa SSE 2.1 mph /  3.4 km/h 8.0 mph /  12.9 km/h 55 % 0.00 in /  0 mm
13:02 60.7 °F /  15.9 °C 46.3 °F /  7.9 °C 30.23 in /  1023.6 hPa ENE 2.1 mph /  3.4 km/h 3.5 mph /  5.6 km/h 59 % 0.00 in /  0 mm
13:07 60.5 °F /  15.8 °C 45.2 °F /  7.3 °C 30.23 in /  1023.6 hPa SSE 3.5 mph /  5.6 km/h 5.8 mph /  9.3 km/h 57 % 0.00 in /  0 mm
13:12 60.3 °F /  15.7 °C 45.0 °F /  7.2 °C 30.23 in /  1023.6 hPa SE 3.7 mph /  6 km/h 6.9 mph /  11.1 km/h 57 % 0.00 in /  0 mm
13:17 60.3 °F /  15.7 °C 44.5 °F /  6.9 °C 30.23 in /  1023.6 hPa SSE 3.1 mph /  5 km/h 4.6 mph /  7.4 km/h 56 % 0.00 in /  0 mm
13:22 60.2 °F /  15.7 °C 44.9 °F /  7.2 °C 30.24 in /  1023.9 hPa SSE 2.7 mph /  4.3 km/h 9.2 mph /  14.8 km/h 57 % 0.00 in /  0 mm
13:27 60.0 °F /  15.6 °C 44.7 °F /  7.1 °C 30.23 in /  1023.6 hPa SE 4.8 mph /  7.7 km/h 9.2 mph /  14.8 km/h 57 % 0.00 in /  0 mm
13:32 60.0 °F /  15.6 °C 45.2 °F /  7.3 °C 30.23 in /  1023.6 hPa SE 2.0 mph /  3.2 km/h 5.8 mph /  9.3 km/h 58 % 0.00 in /  0 mm
13:37 60.3 °F /  15.7 °C 46.8 °F /  8.2 °C 30.22 in /  1023.2 hPa East 3.1 mph /  5 km/h 4.6 mph /  7.4 km/h 61 % 0.00 in /  0 mm
13:43 60.6 °F /  15.9 °C 46.2 °F /  7.9 °C 30.22 in /  1023.2 hPa SE 3.6 mph /  5.8 km/h 8.1 mph /  13 km/h 59 % 0.00 in /  0 mm
13:48 60.8 °F /  16 °C 46.4 °F /  8 °C 30.21 in /  1022.9 hPa SSE 2.5 mph /  4 km/h 6.0 mph /  9.7 km/h 59 % 0.00 in /  0 mm
13:53 60.8 °F /  16 °C 45.5 °F /  7.5 °C 30.21 in /  1022.9 hPa SE 5.4 mph /  8.7 km/h 10.0 mph /  16.1 km/h 57 % 0.00 in /  0 mm
13:58 60.8 °F /  16 °C 45.5 °F /  7.5 °C 30.20 in /  1022.6 hPa East 5.2 mph /  8.4 km/h 9.2 mph /  14.8 km/h 57 % 0.00 in /  0 mm
14:03 61.0 °F /  16.1 °C 46.1 °F /  7.8 °C 30.20 in /  1022.6 hPa East 5.3 mph /  8.5 km/h 9.2 mph /  14.8 km/h 58 % 0.00 in /  0 mm
14:09 61.0 °F /  16.1 °C 46.6 °F /  8.1 °C 30.20 in /  1022.6 hPa ESE 4.2 mph /  6.8 km/h 8.1 mph /  13 km/h 59 % 0.00 in /  0 mm
14:14 61.1 °F /  16.2 °C 47.1 °F /  8.4 °C 30.20 in /  1022.6 hPa East 2.6 mph /  4.2 km/h 6.9 mph /  11.1 km/h 60 % 0.00 in /  0 mm
14:19 61.1 °F /  16.2 °C 46.2 °F /  7.9 °C 30.19 in /  1022.2 hPa East 1.5 mph /  2.4 km/h 10.4 mph /  16.7 km/h 58 % 0.00 in /  0 mm
14:24 61.1 °F /  16.2 °C 48.0 °F /  8.9 °C 30.19 in /  1022.2 hPa East 4.6 mph /  7.4 km/h 5.8 mph /  9.3 km/h 62 % 0.00 in /  0 mm
14:29 61.1 °F /  16.2 °C 47.1 °F /  8.4 °C 30.19 in /  1022.2 hPa East 4.3 mph /  6.9 km/h 6.0 mph /  9.7 km/h 60 % 0.00 in /  0 mm
14:34 60.9 °F /  16.1 °C 47.4 °F /  8.6 °C 30.19 in /  1022.2 hPa East 5.1 mph /  8.2 km/h 7.0 mph /  11.3 km/h 61 % 0.00 in /  0 mm
14:39 60.7 °F /  15.9 °C 46.7 °F /  8.2 °C 30.19 in /  1022.2 hPa ESE 3.9 mph /  6.3 km/h 5.8 mph /  9.3 km/h 60 % 0.00 in /  0 mm
14:44 60.4 °F /  15.8 °C 45.5 °F /  7.5 °C 30.19 in /  1022.2 hPa SSE 5.4 mph /  8.7 km/h 9.0 mph /  14.5 km/h 58 % 0.00 in /  0 mm
14:49 60.2 °F /  15.7 °C 44.9 °F /  7.2 °C 30.19 in /  1022.2 hPa SSE 4.1 mph /  6.6 km/h 8.1 mph /  13 km/h 57 % 0.00 in /  0 mm
14:54 59.9 °F /  15.5 °C 45.5 °F /  7.5 °C 30.19 in /  1022.2 hPa East 3.4 mph /  5.5 km/h 5.0 mph /  8 km/h 59 % 0.00 in /  0 mm
14:59 59.7 °F /  15.4 °C 45.3 °F /  7.4 °C 30.19 in /  1022.2 hPa SSE 3.5 mph /  5.6 km/h 5.8 mph /  9.3 km/h 59 % 0.00 in /  0 mm
15:04 59.3 °F /  15.2 °C 45.0 °F /  7.2 °C 30.20 in /  1022.6 hPa SE 6.3 mph /  10.1 km/h 8.0 mph /  12.9 km/h 59 % 0.00 in /  0 mm
15:10 59.0 °F /  15 °C 44.7 °F /  7.1 °C 30.21 in /  1022.9 hPa SSE 1.5 mph /  2.4 km/h 5.8 mph /  9.3 km/h 59 % 0.00 in /  0 mm
15:15 58.7 °F /  14.8 °C 44.8 °F /  7.1 °C 30.21 in /  1022.9 hPa SE 3.0 mph /  4.8 km/h 8.1 mph /  13 km/h 60 % 0.00 in /  0 mm
15:20 58.5 °F /  14.7 °C 45.1 °F /  7.3 °C 30.21 in /  1022.9 hPa SSE 1.3 mph /  2.1 km/h 4.6 mph /  7.4 km/h 61 % 0.00 in /  0 mm
15:25 58.3 °F /  14.6 °C 44.9 °F /  7.2 °C 30.21 in /  1022.9 hPa SSE 1.2 mph /  1.9 km/h 3.5 mph /  5.6 km/h 61 % 0.00 in /  0 mm
15:30 58.2 °F /  14.6 °C 45.2 °F /  7.3 °C 30.21 in /  1022.9 hPa SSE 3.2 mph /  5.1 km/h 4.6 mph /  7.4 km/h 62 % 0.00 in /  0 mm
15:35 58.2 °F /  14.6 °C 45.7 °F /  7.6 °C 30.21 in /  1022.9 hPa SE 2.1 mph /  3.4 km/h 3.5 mph /  5.6 km/h 63 % 0.00 in /  0 mm
15:40 58.1 °F /  14.5 °C 44.7 °F /  7.1 °C 30.20 in /  1022.6 hPa SSE 1.1 mph /  1.8 km/h 5.0 mph /  8 km/h 61 % 0.00 in /  0 mm
15:45 58.0 °F /  14.4 °C 45.0 °F /  7.2 °C 30.20 in /  1022.6 hPa SE 2.3 mph /  3.7 km/h 4.6 mph /  7.4 km/h 62 % 0.00 in /  0 mm
15:50 58.1 °F /  14.5 °C 46.0 °F /  7.8 °C 30.20 in /  1022.6 hPa ESE 0.8 mph /  1.3 km/h 3.5 mph /  5.6 km/h 64 % 0.00 in /  0 mm
15:55 58.1 °F /  14.5 °C 44.7 °F /  7.1 °C 30.19 in /  1022.2 hPa East 2.6 mph /  4.2 km/h 5.8 mph /  9.3 km/h 61 % 0.00 in /  0 mm
16:00 58.0 °F /  14.4 °C 44.6 °F /  7 °C 30.19 in /  1022.2 hPa SE 1.4 mph /  2.3 km/h 6.9 mph /  11.1 km/h 61 % 0.00 in /  0 mm
16:05 58.0 °F /  14.4 °C 44.2 °F /  6.8 °C 30.19 in /  1022.2 hPa SSE 3.7 mph /  6 km/h 7.0 mph /  11.3 km/h 60 % 0.00 in /  0 mm
16:10 57.9 °F /  14.4 °C 44.1 °F /  6.7 °C 30.19 in /  1022.2 hPa ESE 2.5 mph /  4 km/h 9.2 mph /  14.8 km/h 60 % 0.00 in /  0 mm
16:16 57.8 °F /  14.3 °C 44.4 °F /  6.9 °C 30.19 in /  1022.2 hPa East 3.0 mph /  4.8 km/h 5.0 mph /  8 km/h 61 % 0.00 in /  0 mm
16:21 57.7 °F /  14.3 °C 44.3 °F /  6.8 °C 30.20 in /  1022.6 hPa ESE 2.0 mph /  3.2 km/h 5.0 mph /  8 km/h 61 % 0.00 in /  0 mm
16:26 57.5 °F /  14.2 °C 43.7 °F /  6.5 °C 30.19 in /  1022.2 hPa SE 2.0 mph /  3.2 km/h 5.0 mph /  8 km/h 60 % 0.00 in /  0 mm
16:31 57.4 °F /  14.1 °C 43.6 °F /  6.4 °C 30.19 in /  1022.2 hPa SE 6.0 mph /  9.7 km/h 9.0 mph /  14.5 km/h 60 % 0.00 in /  0 mm
16:36 57.3 °F /  14.1 °C 44.0 °F /  6.7 °C 30.19 in /  1022.2 hPa ESE 3.0 mph /  4.8 km/h 9.0 mph /  14.5 km/h 61 % 0.00 in /  0 mm
16:41 57.1 °F /  13.9 °C 43.8 °F /  6.6 °C 30.19 in /  1022.2 hPa ESE 2.0 mph /  3.2 km/h 4.6 mph /  7.4 km/h 61 % 0.00 in /  0 mm
16:46 57.0 °F /  13.9 °C 44.5 °F /  6.9 °C 30.19 in /  1022.2 hPa ESE 2.0 mph /  3.2 km/h 5.0 mph /  8 km/h 63 % 0.00 in /  0 mm
16:51 56.8 °F /  13.8 °C 43.5 °F /  6.4 °C 30.19 in /  1022.2 hPa SE 2.0 mph /  3.2 km/h 8.0 mph /  12.9 km/h 61 % 0.00 in /  0 mm
16:56 56.6 °F /  13.7 °C 44.2 °F /  6.8 °C 30.19 in /  1022.2 hPa SE 1.0 mph /  1.6 km/h 6.0 mph /  9.7 km/h 63 % 0.00 in /  0 mm
17:01 56.4 °F /  13.6 °C 43.1 °F /  6.2 °C 30.19 in /  1022.2 hPa SSE 2.1 mph /  3.4 km/h 3.5 mph /  5.6 km/h 61 % 0.00 in /  0 mm
17:06 56.2 °F /  13.4 °C 44.2 °F /  6.8 °C 30.19 in /  1022.2 hPa SSE 2.5 mph /  4 km/h 4.0 mph /  6.4 km/h 64 % 0.00 in /  0 mm
17:12 56.1 °F /  13.4 °C 44.5 °F /  6.9 °C 30.19 in /  1022.2 hPa SSE 1.3 mph /  2.1 km/h 3.5 mph /  5.6 km/h 65 % 0.00 in /  0 mm
17:17 55.9 °F /  13.3 °C 45.1 °F /  7.3 °C 30.19 in /  1022.2 hPa ESE 1.2 mph /  1.9 km/h 3.5 mph /  5.6 km/h 67 % 0.00 in /  0 mm
17:22 55.8 °F /  13.2 °C 44.2 °F /  6.8 °C 30.19 in /  1022.2 hPa East 1.3 mph /  2.1 km/h 3.5 mph /  5.6 km/h 65 % 0.00 in /  0 mm
17:27 55.6 °F /  13.1 °C 44.4 °F /  6.9 °C 30.19 in /  1022.2 hPa East 1.2 mph /  1.9 km/h 5.0 mph /  8 km/h 66 % 0.00 in /  0 mm
17:32 55.5 °F /  13.1 °C 44.7 °F /  7.1 °C 30.19 in /  1022.2 hPa ESE 2.4 mph /  3.9 km/h 3.5 mph /  5.6 km/h 67 % 0.00 in /  0 mm
17:37 55.3 °F /  12.9 °C 44.1 °F /  6.7 °C 30.20 in /  1022.6 hPa ESE 0.5 mph /  0.8 km/h 1.2 mph /  1.9 km/h 66 % 0.00 in /  0 mm
17:42 55.3 °F /  12.9 °C 44.1 °F /  6.7 °C 30.20 in /  1022.6 hPa ESE 0.7 mph /  1.1 km/h 2.0 mph /  3.2 km/h 66 % 0.00 in /  0 mm
17:47 55.2 °F /  12.9 °C 45.2 °F /  7.3 °C 30.20 in /  1022.6 hPa ESE 1.8 mph /  2.9 km/h 3.5 mph /  5.6 km/h 69 % 0.00 in /  0 mm
17:52 55.1 °F /  12.8 °C 45.1 °F /  7.3 °C 30.20 in /  1022.6 hPa East 1.9 mph /  3.1 km/h 3.5 mph /  5.6 km/h 69 % 0.00 in /  0 mm
17:57 55.0 °F /  12.8 °C 44.6 °F /  7 °C 30.20 in /  1022.6 hPa East 2.5 mph /  4 km/h 3.5 mph /  5.6 km/h 68 % 0.00 in /  0 mm
18:03 54.9 °F /  12.7 °C 44.9 °F /  7.2 °C 30.20 in /  1022.6 hPa East 2.2 mph /  3.5 km/h 3.5 mph /  5.6 km/h 69 % 0.00 in /  0 mm
18:08 54.8 °F /  12.7 °C 44.4 °F /  6.9 °C 30.20 in /  1022.6 hPa ENE 1.5 mph /  2.4 km/h 3.5 mph /  5.6 km/h 68 % 0.00 in /  0 mm
18:13 54.6 °F /  12.6 °C 44.2 °F /  6.8 °C 30.21 in /  1022.9 hPa ENE 1.3 mph /  2.1 km/h 3.5 mph /  5.6 km/h 68 % 0.00 in /  0 mm
18:18 54.5 °F /  12.5 °C 44.2 °F /  6.8 °C 30.21 in /  1022.9 hPa NE 2.0 mph /  3.2 km/h 3.5 mph /  5.6 km/h 68 % 0.00 in /  0 mm
18:23 54.4 °F /  12.4 °C 44.4 °F /  6.9 °C 30.20 in /  1022.6 hPa East 2.5 mph /  4 km/h 5.0 mph /  8 km/h 69 % 0.00 in /  0 mm
18:28 54.2 °F /  12.3 °C 44.2 °F /  6.8 °C 30.20 in /  1022.6 hPa East 3.1 mph /  5 km/h 5.0 mph /  8 km/h 69 % 0.00 in /  0 mm
18:33 54.1 °F /  12.3 °C 44.2 °F /  6.8 °C 30.20 in /  1022.6 hPa East 2.5 mph /  4 km/h 5.0 mph /  8 km/h 69 % 0.00 in /  0 mm
18:38 54.0 °F /  12.2 °C 43.3 °F /  6.3 °C 30.20 in /  1022.6 hPa East 1.9 mph /  3.1 km/h 4.6 mph /  7.4 km/h 67 % 0.00 in /  0 mm
18:43 53.9 °F /  12.2 °C 43.6 °F /  6.4 °C 30.19 in /  1022.2 hPa East 2.4 mph /  3.9 km/h 4.6 mph /  7.4 km/h 68 % 0.00 in /  0 mm
18:48 53.8 °F /  12.1 °C 43.9 °F /  6.6 °C 30.19 in /  1022.2 hPa East 2.9 mph /  4.7 km/h 5.8 mph /  9.3 km/h 69 % 0.00 in /  0 mm
18:53 53.7 °F /  12.1 °C 42.6 °F /  5.9 °C 30.19 in /  1022.2 hPa East 3.0 mph /  4.8 km/h 5.8 mph /  9.3 km/h 66 % 0.00 in /  0 mm
18:59 53.6 °F /  12 °C 42.5 °F /  5.8 °C 30.19 in /  1022.2 hPa East 2.8 mph /  4.5 km/h 3.5 mph /  5.6 km/h 66 % 0.00 in /  0 mm
19:04 53.6 °F /  12 °C 42.9 °F /  6.1 °C 30.19 in /  1022.2 hPa ESE 0.8 mph /  1.3 km/h 3.5 mph /  5.6 km/h 67 % 0.00 in /  0 mm
19:09 53.5 °F /  11.9 °C 42.8 °F /  6 °C 30.19 in /  1022.2 hPa SE 1.0 mph /  1.6 km/h 2.3 mph /  3.7 km/h 67 % 0.00 in /  0 mm
19:14 53.5 °F /  11.9 °C 42.4 °F /  5.8 °C 30.18 in /  1021.9 hPa ENE 1.7 mph /  2.7 km/h 3.5 mph /  5.6 km/h 66 % 0.00 in /  0 mm
19:19 53.3 °F /  11.8 °C 41.8 °F /  5.4 °C 30.18 in /  1021.9 hPa ESE 1.4 mph /  2.3 km/h 3.5 mph /  5.6 km/h 65 % 0.00 in /  0 mm
19:24 53.3 °F /  11.8 °C 41.8 °F /  5.4 °C 30.18 in /  1021.9 hPa SE 2.4 mph /  3.9 km/h 4.6 mph /  7.4 km/h 65 % 0.00 in /  0 mm
19:29 53.2 °F /  11.8 °C 41.7 °F /  5.4 °C 30.18 in /  1021.9 hPa East 2.6 mph /  4.2 km/h 3.5 mph /  5.6 km/h 65 % 0.00 in /  0 mm
19:34 53.0 °F /  11.7 °C 41.9 °F /  5.5 °C 30.18 in /  1021.9 hPa ESE 1.7 mph /  2.7 km/h 4.6 mph /  7.4 km/h 66 % 0.00 in /  0 mm
19:39 52.9 °F /  11.6 °C 42.2 °F /  5.7 °C 30.18 in /  1021.9 hPa ESE 0.9 mph /  1.4 km/h 3.5 mph /  5.6 km/h 67 % 0.00 in /  0 mm
19:44 52.9 °F /  11.6 °C 41.8 °F /  5.4 °C 30.19 in /  1022.2 hPa Calm   3.5 mph /  5.6 km/h 66 % 0.00 in /  0 mm
19:50 52.8 °F /  11.6 °C 41.7 °F /  5.4 °C 30.20 in /  1022.6 hPa Calm     66 % 0.00 in /  0 mm
19:55 52.8 °F /  11.6 °C 41.7 °F /  5.4 °C 30.19 in /  1022.2 hPa Calm     66 % 0.00 in /  0 mm
20:00 52.8 °F /  11.6 °C 41.7 °F /  5.4 °C 30.19 in /  1022.2 hPa SSE 5.1 mph /  8.2 km/h 8.1 mph /  13 km/h 66 % 0.00 in /  0 mm
20:05 52.7 °F /  11.5 °C 41.7 °F /  5.4 °C 30.18 in /  1021.9 hPa ESE 0.2 mph /  0.3 km/h 1.2 mph /  1.9 km/h 66 % 0.00 in /  0 mm
20:10 52.6 °F /  11.4 °C 41.6 °F /  5.3 °C 30.17 in /  1021.6 hPa ESE 2.0 mph /  3.2 km/h 4.6 mph /  7.4 km/h 66 % 0.00 in /  0 mm
20:15 52.5 °F /  11.4 °C 41.1 °F /  5.1 °C 30.18 in /  1021.9 hPa SE 2.1 mph /  3.4 km/h 6.9 mph /  11.1 km/h 65 % 0.00 in /  0 mm
20:20 52.4 °F /  11.3 °C 41.0 °F /  5 °C 30.17 in /  1021.6 hPa ESE 0.9 mph /  1.4 km/h 3.0 mph /  4.8 km/h 65 % 0.00 in /  0 mm
20:25 52.3 °F /  11.3 °C 41.3 °F /  5.2 °C 30.17 in /  1021.6 hPa ESE 0.8 mph /  1.3 km/h 2.3 mph /  3.7 km/h 66 % 0.00 in /  0 mm
20:30 52.2 °F /  11.2 °C 40.8 °F /  4.9 °C 30.16 in /  1021.2 hPa SSE 3.5 mph /  5.6 km/h 8.0 mph /  12.9 km/h 65 % 0.00 in /  0 mm
20:35 52.1 °F /  11.2 °C 40.7 °F /  4.8 °C 30.16 in /  1021.2 hPa SSE 4.1 mph /  6.6 km/h 9.2 mph /  14.8 km/h 65 % 0.00 in /  0 mm
20:40 52.1 °F /  11.2 °C 41.1 °F /  5.1 °C 30.17 in /  1021.6 hPa SE 3.1 mph /  5 km/h 5.0 mph /  8 km/h 66 % 0.00 in /  0 mm
20:45 52.0 °F /  11.1 °C 41.4 °F /  5.2 °C 30.16 in /  1021.2 hPa ESE 2.1 mph /  3.4 km/h 4.6 mph /  7.4 km/h 67 % 0.00 in /  0 mm
20:51 51.9 °F /  11.1 °C 41.3 °F /  5.2 °C 30.16 in /  1021.2 hPa ESE 5.0 mph /  8 km/h 8.0 mph /  12.9 km/h 67 % 0.00 in /  0 mm
20:56 51.8 °F /  11 °C 41.6 °F /  5.3 °C 30.16 in /  1021.2 hPa ESE 1.0 mph /  1.6 km/h 5.0 mph /  8 km/h 68 % 0.00 in /  0 mm
21:01 51.7 °F /  10.9 °C 42.2 °F /  5.7 °C 30.16 in /  1021.2 hPa ESE 2.0 mph /  3.2 km/h 4.6 mph /  7.4 km/h 70 % 0.00 in /  0 mm
21:06 51.6 °F /  10.9 °C 41.8 °F /  5.4 °C 30.17 in /  1021.6 hPa ESE 2.2 mph /  3.5 km/h 5.8 mph /  9.3 km/h 69 % 0.00 in /  0 mm
21:11 51.6 °F /  10.9 °C 42.1 °F /  5.6 °C 30.17 in /  1021.6 hPa SSE 0.2 mph /  0.3 km/h 1.2 mph /  1.9 km/h 70 % 0.00 in /  0 mm
21:16 51.5 °F /  10.8 °C 42.0 °F /  5.6 °C 30.17 in /  1021.6 hPa East 0.7 mph /  1.1 km/h 2.3 mph /  3.7 km/h 70 % 0.00 in /  0 mm
21:21 51.5 °F /  10.8 °C 42.8 °F /  6 °C 30.17 in /  1021.6 hPa ESE 1.3 mph /  2.1 km/h 3.5 mph /  5.6 km/h 72 % 0.00 in /  0 mm
21:26 51.5 °F /  10.8 °C 43.1 °F /  6.2 °C 30.18 in /  1021.9 hPa ESE 0.3 mph /  0.5 km/h 2.3 mph /  3.7 km/h 73 % 0.00 in /  0 mm
21:31 51.4 °F /  10.8 °C 42.7 °F /  5.9 °C 30.17 in /  1021.6 hPa SE 0.7 mph /  1.1 km/h 2.3 mph /  3.7 km/h 72 % 0.00 in /  0 mm
21:36 51.4 °F /  10.8 °C 43.0 °F /  6.1 °C 30.17 in /  1021.6 hPa SE 0.1 mph /  0.2 km/h 1.2 mph /  1.9 km/h 73 % 0.00 in /  0 mm
21:41 51.4 °F /  10.8 °C 43.0 °F /  6.1 °C 30.17 in /  1021.6 hPa SE 1.4 mph /  2.3 km/h 2.3 mph /  3.7 km/h 73 % 0.00 in /  0 mm
21:46 51.4 °F /  10.8 °C 43.0 °F /  6.1 °C 30.18 in /  1021.9 hPa ESE 0.4 mph /  0.6 km/h 3.5 mph /  5.6 km/h 73 % 0.00 in /  0 mm
21:51 51.3 °F /  10.7 °C 42.9 °F /  6.1 °C 30.17 in /  1021.6 hPa ESE 1.8 mph /  2.9 km/h 3.5 mph /  5.6 km/h 73 % 0.00 in /  0 mm
21:57 51.3 °F /  10.7 °C 43.3 °F /  6.3 °C 30.17 in /  1021.6 hPa ESE 0.7 mph /  1.1 km/h 2.3 mph /  3.7 km/h 74 % 0.00 in /  0 mm
22:02 51.3 °F /  10.7 °C 43.3 °F /  6.3 °C 30.18 in /  1021.9 hPa Calm   1.2 mph /  1.9 km/h 74 % 0.00 in /  0 mm
22:07 51.3 °F /  10.7 °C 43.3 °F /  6.3 °C 30.17 in /  1021.6 hPa ESE 0.9 mph /  1.4 km/h 2.3 mph /  3.7 km/h 74 % 0.00 in /  0 mm
22:12 51.3 °F /  10.7 °C 43.6 °F /  6.4 °C 30.17 in /  1021.6 hPa ESE 0.2 mph /  0.3 km/h 1.2 mph /  1.9 km/h 75 % 0.00 in /  0 mm
22:17 51.3 °F /  10.7 °C 43.6 °F /  6.4 °C 30.17 in /  1021.6 hPa ESE 0.5 mph /  0.8 km/h 1.2 mph /  1.9 km/h 75 % 0.00 in /  0 mm
22:18 51.3 °F /  10.7 °C 43.6 °F /  6.4 °C 30.17 in /  1021.6 hPa ESE 0.8 mph /  1.3 km/h 1.2 mph /  1.9 km/h 75 % 0.00 in /  0 mm
22:23 51.2 °F /  10.7 °C 43.5 °F /  6.4 °C 30.16 in /  1021.2 hPa ESE 0.9 mph /  1.4 km/h 2.3 mph /  3.7 km/h 75 % 0.00 in /  0 mm
22:29 51.2 °F /  10.7 °C 43.2 °F /  6.2 °C 30.16 in /  1021.2 hPa ESE 0.9 mph /  1.4 km/h 2.3 mph /  3.7 km/h 74 % 0.00 in /  0 mm
22:34 51.2 °F /  10.7 °C 43.5 °F /  6.4 °C 30.16 in /  1021.2 hPa East 0.3 mph /  0.5 km/h 1.2 mph /  1.9 km/h 75 % 0.00 in /  0 mm
22:39 51.2 °F /  10.7 °C 43.9 °F /  6.6 °C 30.15 in /  1020.9 hPa East 1.6 mph /  2.6 km/h 2.3 mph /  3.7 km/h 76 % 0.00 in /  0 mm
22:44 51.2 °F /  10.7 °C 43.9 °F /  6.6 °C 30.15 in /  1020.9 hPa East 2.7 mph /  4.3 km/h 3.5 mph /  5.6 km/h 76 % 0.00 in /  0 mm
22:49 51.1 °F /  10.6 °C 43.8 °F /  6.6 °C 30.15 in /  1020.9 hPa East 1.7 mph /  2.7 km/h 3.0 mph /  4.8 km/h 76 % 0.00 in /  0 mm
22:54 51.1 °F /  10.6 °C 44.1 °F /  6.7 °C 30.14 in /  1020.5 hPa East 1.4 mph /  2.3 km/h 2.3 mph /  3.7 km/h 77 % 0.00 in /  0 mm
22:59 51.0 °F /  10.6 °C 43.7 °F /  6.5 °C 30.12 in /  1019.9 hPa East 3.3 mph /  5.3 km/h 5.0 mph /  8 km/h 76 % 0.00 in /  0 mm
23:04 51.0 °F /  10.6 °C 43.7 °F /  6.5 °C 30.13 in /  1020.2 hPa ESE 1.3 mph /  2.1 km/h 2.3 mph /  3.7 km/h 76 % 0.00 in /  0 mm
23:09 51.0 °F /  10.6 °C 44.4 °F /  6.9 °C 30.14 in /  1020.5 hPa ENE 3.0 mph /  4.8 km/h 4.6 mph /  7.4 km/h 78 % 0.00 in /  0 mm
23:14 51.0 °F /  10.6 °C 44.4 °F /  6.9 °C 30.14 in /  1020.5 hPa ENE 1.2 mph /  1.9 km/h 2.3 mph /  3.7 km/h 78 % 0.00 in /  0 mm
23:19 51.0 °F /  10.6 °C 44.7 °F /  7.1 °C 30.13 in /  1020.2 hPa ENE 2.3 mph /  3.7 km/h 3.5 mph /  5.6 km/h 79 % 0.00 in /  0 mm
23:24 50.9 °F /  10.5 °C 44.6 °F /  7 °C 30.13 in /  1020.2 hPa East 2.2 mph /  3.5 km/h 3.5 mph /  5.6 km/h 79 % 0.00 in /  0 mm
23:29 50.9 °F /  10.5 °C 44.6 °F /  7 °C 30.13 in /  1020.2 hPa East 2.1 mph /  3.4 km/h 4.6 mph /  7.4 km/h 79 % 0.00 in /  0 mm
23:34 50.9 °F /  10.5 °C 44.6 °F /  7 °C 30.13 in /  1020.2 hPa East 0.8 mph /  1.3 km/h 2.3 mph /  3.7 km/h 79 % 0.00 in /  0 mm
23:40 50.9 °F /  10.5 °C 44.6 °F /  7 °C 30.14 in /  1020.5 hPa East 1.2 mph /  1.9 km/h 2.3 mph /  3.7 km/h 79 % 0.00 in /  0 mm
23:44 50.9 °F /  10.5 °C 44.6 °F /  7 °C 30.14 in /  1020.5 hPa East 0.7 mph /  1.1 km/h 2.3 mph /  3.7 km/h 79 % 0.00 in /  0 mm
23:50 50.8 °F /  10.4 °C 44.9 °F /  7.2 °C 30.14 in /  1020.5 hPa ENE 2.3 mph /  3.7 km/h 2.3 mph /  3.7 km/h 80 % 0.00 in /  0 mm
23:55 50.8 °F /  10.4 °C 44.9 °F /  7.2 °C 30.14 in /  1020.5 hPa ENE 0.8 mph /  1.3 km/h 3.5 mph /  5.6 km/h 80 % 0.00 in /  0 mm
23:56 50.8 °F /  10.4 °C 44.9 °F /  7.2 °C 30.14 in /  1020.5 hPa ENE 0.8 mph /  1.3 km/h 2.3 mph /  3.7 km/h 80 % 0.00 in /  0 mm
Crab Meadow Weather
Compliments of Weather Underground - 3 mb

Script developed by  Jim McMurry - jmcmurry@mwt.net Adapted for the template by  Wim van der Kuil - Leuven-Template.eu

Weather Terms: Squall line - A line of thunderstorms or squalls which may extend over several hundred miles.